Nautilus — OUYX2 — position and weather

sailwx.info

Track history (hours):
 
Tides and Currents Weather Stations Pressure Air Temp Water Temp Dewpoint Dewpoint Depression Visibility Wind Speed Wind Dir Waves Ship Positions

Nautilus

Last reported at 2016-Feb-09 00:33 UTC. Time now 2016-Feb-09 01:33 UTC.
Position N 57°33' E 011°38'.

Length 120 m; draft 5 m.

Type: Ship. MMSI: 219425000.

Date/timePositionNaut miles runAvg speedWind from/ knotsBaromVisibWave heightAir tempDewpointWater temp
2016-Feb-09 00:33N 57°33' E 011°38'0 0.0
2016-Feb-08 23:33N 57°33' E 011°38'0 0.0
2016-Feb-08 22:33N 57°33' E 011°38'0 0.0
2016-Feb-08 21:33N 57°33' E 011°38'0 0.0
2016-Feb-08 20:33N 57°33' E 011°38'0 0.0
2016-Feb-08 19:33N 57°33' E 011°38'0 0.0
2016-Feb-08 18:33N 57°33' E 011°38'0 0.0
2016-Feb-08 17:33N 57°33' E 011°38'0 0.5
2016-Feb-08 16:34N 57°33' E 011°38'1312.7
2016-Feb-08 15:33N 57°22' E 011°47'1414.1
2016-Feb-08 14:33N 57°08' E 011°56'1313.5
2016-Feb-08 13:34N 56°56' E 012°04'1313.4
2016-Feb-08 12:34N 56°43' E 012°11'1313.0
2016-Feb-08 11:34N 56°30' E 012°17'1814.5
2016-Feb-08 10:19N 56°13' E 012°28'1216.2
2016-Feb-08 09:33N 56°03' E 012°39'1414.0
2016-Feb-08 08:33N 55°49' E 012°43'8 8.4
2016-Feb-08 07:33N 55°41' E 012°38'0 0.0
2016-Feb-08 06:30N 55°41' E 012°38'0 0.0
2016-Feb-08 05:30N 55°41' E 012°38'0 0.0
2016-Feb-08 04:24N 55°41' E 012°38'0 0.0
2016-Feb-08 03:33N 55°41' E 012°38'0 0.0
2016-Feb-08 02:33N 55°41' E 012°38'0 0.0
2016-Feb-08 01:24N 55°41' E 012°38'0 0.0
2016-Feb-08 00:27N 55°41' E 012°38'0 0.0
2016-Feb-07 23:21N 55°41' E 012°38'0 0.0
2016-Feb-07 22:27N 55°41' E 012°38'0 0.0
2016-Feb-07 21:33N 55°41' E 012°38'0 0.0
2016-Feb-07 20:33N 55°41' E 012°38'0 0.0
2016-Feb-07 19:27N 55°41' E 012°38'1 1.2
2016-Feb-07 18:34N 55°42' E 012°38'9 8.9
2016-Feb-07 17:34N 55°51' E 012°41'1110.6
2016-Feb-07 16:34N 56°02' E 012°40'10 9.7
2016-Feb-07 15:34N 56°09' E 012°27'1110.5
2016-Feb-07 14:33N 56°19' E 012°21'1111.2
2016-Feb-07 13:33N 56°29' E 012°16'1211.8
2016-Feb-07 12:33N 56°41' E 012°11'1111.3
2016-Feb-07 11:34N 56°52' E 012°06'1110.6
2016-Feb-07 10:34N 57°02' E 011°60'1010.3
2016-Feb-07 09:33N 57°12' E 011°54'9 9.5
2016-Feb-07 08:33N 57°20' E 011°45'1010.1
2016-Feb-07 07:33N 57°28' E 011°34'1010.1
2016-Feb-07 06:34N 57°37' E 011°24'1110.8
2016-Feb-07 05:34N 57°47' E 011°21'1010.5
2016-Feb-07 04:34N 57°58' E 011°17'10 9.7
2016-Feb-07 03:33N 58°07' E 011°15'9 9.0
2016-Feb-07 02:33N 58°16' E 011°15'8 7.8
2016-Feb-07 01:34N 58°21' E 011°26'0 0.0
2016-Feb-06 15:09N 58°21' E 011°26'0 0.0
2016-Feb-06 14:27N 58°21' E 011°26'0 0.0
2016-Feb-06 13:30N 58°21' E 011°26'0 0.0
2016-Feb-06 12:31N 58°21' E 011°26'1 1.4
2016-Feb-06 11:33N 58°21' E 011°24'1110.9
2016-Feb-06 10:33N 58°12' E 011°11'1 0.9
2016-Feb-06 09:33N 58°11' E 011°11'0 0.1
2016-Feb-06 08:30N 58°11' E 011°11'0 0.0
2016-Feb-06 07:33N 58°11' E 011°11'0 0.0
2016-Feb-06 06:33N 58°11' E 011°11'0 0.0
2016-Feb-06 05:33N 58°11' E 011°11'0 0.0
2016-Feb-06 04:33N 58°11' E 011°11'0 0.0
2016-Feb-06 03:33N 58°11' E 011°11'0 0.0
2016-Feb-06 02:27N 58°11' E 011°11'0 0.0
2016-Feb-06 01:33N 58°11' E 011°11'0 0.0
2016-Feb-06 00:30N 58°11' E 011°11'0 0.0
2016-Feb-05 23:33N 58°11' E 011°11'0 0.0
2016-Feb-05 22:33N 58°11' E 011°11'0 0.0
2016-Feb-05 21:33N 58°11' E 011°11'0 0.0
2016-Feb-05 20:33N 58°11' E 011°11'0 0.0
2016-Feb-05 19:27N 58°11' E 011°11'0 0.0
2016-Feb-05 18:33N 58°11' E 011°11'0 0.0
2016-Feb-05 17:33N 58°11' E 011°11'0 0.0
2016-Feb-05 16:33N 58°11' E 011°11'0 0.0
2016-Feb-05 15:33N 58°11' E 011°11'0 0.0
2016-Feb-05 14:33N 58°11' E 011°11'0 0.0
2016-Feb-05 13:33N 58°11' E 011°11'0 0.0
2016-Feb-05 12:33N 58°11' E 011°11'0 0.0
2016-Feb-05 11:33N 58°11' E 011°11'0 0.0
2016-Feb-05 10:33N 58°11' E 011°11'0 0.0
2016-Feb-05 09:33N 58°11' E 011°11'0 0.1
2016-Feb-05 08:33N 58°11' E 011°11'0 0.0
2016-Feb-05 07:33N 58°11' E 011°11'0 0.0
2016-Feb-05 06:33N 58°11' E 011°11'0 0.0
2016-Feb-05 05:33N 58°11' E 011°11'0 0.0
2016-Feb-05 04:33N 58°11' E 011°11'0 0.0
2016-Feb-05 03:33N 58°11' E 011°11'0 0.0
2016-Feb-05 02:33N 58°11' E 011°11'0 0.0
2016-Feb-05 01:33N 58°11' E 011°11'0 0.0
2016-Feb-05 00:33N 58°11' E 011°11'0 0.0
2016-Feb-04 23:33N 58°11' E 011°11'0 0.0
2016-Feb-04 22:33N 58°11' E 011°11'0 0.0
2016-Feb-04 21:33N 58°11' E 011°11'0 0.1
2016-Feb-04 20:33N 58°11' E 011°11'0 0.0
2016-Feb-04 19:30N 58°11' E 011°11'3 2.9
2016-Feb-04 18:33N 58°08' E 011°10'1312.6
2016-Feb-04 17:33N 57°56' E 011°16'1211.9
2016-Feb-04 16:33N 57°44' E 011°21'1111.4
2016-Feb-04 15:33N 57°33' E 011°26'1111.4
2016-Feb-04 14:33N 57°22' E 011°32'1111.4
2016-Feb-04 13:33N 57°11' E 011°37'1212.0
2016-Feb-04 12:33N 56°60' E 011°45'1211.6
2016-Feb-04 11:33N 56°49' E 011°52'1110.5
2016-Feb-04 10:33N 56°40' E 011°43'4412.8
2016-Feb-04 07:07N 56°09' E 010°46'1610.0
2016-Feb-04 05:34N 56°08' E 010°18'2 2.3
2016-Feb-04 04:31N 56°09' E 010°14'0 0.0
2016-Feb-04 03:25N 56°09' E 010°14'0 0.0
2016-Feb-04 02:31N 56°09' E 010°14'0 0.0
2016-Feb-04 01:23N 56°09' E 010°14'0 0.0
2016-Feb-04 00:31N 56°09' E 010°14'0 0.0
2016-Feb-03 23:25N 56°09' E 010°14'0 0.0
2016-Feb-03 22:25N 56°09' E 010°14'0 0.0
2016-Feb-03 21:31N 56°09' E 010°14'0 0.0
2016-Feb-03 20:26N 56°09' E 010°14'0 0.0
2016-Feb-03 19:31N 56°09' E 010°14'0 0.0
2016-Feb-03 18:19N 56°09' E 010°14'0 0.0
2016-Feb-03 17:31N 56°09' E 010°14'0 0.0
2016-Feb-03 16:32N 56°09' E 010°14'0 0.0
2016-Feb-03 15:28N 56°09' E 010°14'0 0.0
2016-Feb-03 14:06N 56°09' E 010°14'1 0.9
2016-Feb-03 13:32N 56°10' E 010°14'10 8.7
2016-Feb-03 12:24N 56°06' E 010°30'5110.0
2016-Feb-03 07:17N 56°40' E 011°39'810.6
2016-Feb-03 06:33N 56°45' E 011°50'1111.0
2016-Feb-03 05:33N 56°55' E 011°45'1211.7
2016-Feb-03 04:33N 57°06' E 011°38'1111.2
2016-Feb-03 03:33N 57°17' E 011°38'1211.6
2016-Feb-03 02:33N 57°29' E 011°38'1010.3
2016-Feb-03 01:33N 57°39' E 011°41'6 6.3
2016-Feb-03 00:33N 57°41' E 011°52'0 0.0
2016-Feb-02 23:31N 57°41' E 011°52'0 0.0
2016-Feb-02 22:34N 57°41' E 011°52'0 0.0
2016-Feb-02 21:34N 57°41' E 011°52'0 0.0
2016-Feb-02 20:34N 57°41' E 011°52'0 0.0
2016-Feb-02 19:34N 57°41' E 011°52'0 0.0
2016-Feb-02 18:31N 57°41' E 011°52'0 0.0
2016-Feb-02 17:34N 57°41' E 011°52'0 0.0
2016-Feb-02 16:34N 57°41' E 011°52'0 0.0
2016-Feb-02 15:30N 57°41' E 011°52'0 0.0
2016-Feb-02 14:31N 57°41' E 011°52'0 0.0
2016-Feb-02 13:34N 57°41' E 011°52'0 0.0
2016-Feb-02 12:31N 57°41' E 011°52'0 0.0
2016-Feb-02 11:34N 57°41' E 011°52'1 0.8
2016-Feb-02 10:33N 57°41' E 011°51'9 9.4
2016-Feb-02 09:33N 57°35' E 011°38'1212.4
2016-Feb-02 08:33N 57°22' E 011°38'74 2.0
2016-Jan-31 19:08N 56°09' E 011°48'711.7
2016-Jan-31 18:33N 56°11' E 011°59'1211.6
2016-Jan-31 17:33N 56°11' E 012°20'1110.7
2016-Jan-31 16:33N 56°05' E 012°36'9 9.2
2016-Jan-31 15:33N 55°57' E 012°43'1010.5
2016-Jan-31 14:34N 55°47' E 012°42'10 9.8
2016-Jan-31 13:33N 55°37' E 012°42'8 7.6
2016-Jan-31 12:34N 55°29' E 012°42'1111.0
2016-Jan-31 11:33N 55°18' E 012°42'1110.7
2016-Jan-31 10:34N 55°16' E 012°60'1010.0
2016-Jan-31 09:31N 55°15' E 013°18'9 9.0
2016-Jan-31 08:33N 55°15' E 013°33'8 7.6
2016-Jan-31 07:33N 55°14' E 013°47'7 6.6
2016-Jan-31 06:33N 55°14' E 013°58'7 6.6
2016-Jan-31 05:33N 55°14' E 014°10'7 7.0
2016-Jan-31 04:33N 55°17' E 014°21'9 8.5
2016-Jan-31 03:33N 55°24' E 014°30'9 9.0
2016-Jan-31 02:33N 55°29' E 014°43'9 9.3
2016-Jan-31 01:33N 55°33' E 014°58'10 9.5
2016-Jan-31 00:33N 55°34' E 015°15'10 9.8
2016-Jan-30 23:33N 55°34' E 015°32'  
Track history (hours):
 
Tides and Currents Weather Stations Pressure Air Temp Water Temp Dewpoint Dewpoint Depression Visibility Wind Speed Wind Dir Waves Ship Positions

Nautilus

Last reported at 2016-Feb-09 00:33 UTC. Time now 2016-Feb-09 01:33 UTC.
Position N 57°33' E 011°38'.

Length 120 m; draft 5 m.

Type: Ship. MMSI: 219425000.

Date/timePositionNaut miles runAvg speedWind from/ knotsBaromVisibWave heightAir tempDewpointWater temp
2016-Feb-09 00:33N 57°33' E 011°38'0 0.0
2016-Feb-08 23:33N 57°33' E 011°38'0 0.0
2016-Feb-08 22:33N 57°33' E 011°38'0 0.0
2016-Feb-08 21:33N 57°33' E 011°38'0 0.0
2016-Feb-08 20:33N 57°33' E 011°38'0 0.0
2016-Feb-08 19:33N 57°33' E 011°38'0 0.0
2016-Feb-08 18:33N 57°33' E 011°38'0 0.0
2016-Feb-08 17:33N 57°33' E 011°38'0 0.5
2016-Feb-08 16:34N 57°33' E 011°38'1312.7
2016-Feb-08 15:33N 57°22' E 011°47'1414.1
2016-Feb-08 14:33N 57°08' E 011°56'1313.5
2016-Feb-08 13:34N 56°56' E 012°04'1313.4
2016-Feb-08 12:34N 56°43' E 012°11'1313.0
2016-Feb-08 11:34N 56°30' E 012°17'1814.5
2016-Feb-08 10:19N 56°13' E 012°28'1216.2
2016-Feb-08 09:33N 56°03' E 012°39'1414.0
2016-Feb-08 08:33N 55°49' E 012°43'8 8.4
2016-Feb-08 07:33N 55°41' E 012°38'0 0.0
2016-Feb-08 06:30N 55°41' E 012°38'0 0.0
2016-Feb-08 05:30N 55°41' E 012°38'0 0.0
2016-Feb-08 04:24N 55°41' E 012°38'0 0.0
2016-Feb-08 03:33N 55°41' E 012°38'0 0.0
2016-Feb-08 02:33N 55°41' E 012°38'0 0.0
2016-Feb-08 01:24N 55°41' E 012°38'0 0.0
2016-Feb-08 00:27N 55°41' E 012°38'0 0.0
2016-Feb-07 23:21N 55°41' E 012°38'0 0.0
2016-Feb-07 22:27N 55°41' E 012°38'0 0.0
2016-Feb-07 21:33N 55°41' E 012°38'0 0.0
2016-Feb-07 20:33N 55°41' E 012°38'0 0.0
2016-Feb-07 19:27N 55°41' E 012°38'1 1.2
2016-Feb-07 18:34N 55°42' E 012°38'9 8.9
2016-Feb-07 17:34N 55°51' E 012°41'1110.6
2016-Feb-07 16:34N 56°02' E 012°40'10 9.7
2016-Feb-07 15:34N 56°09' E 012°27'1110.5
2016-Feb-07 14:33N 56°19' E 012°21'1111.2
2016-Feb-07 13:33N 56°29' E 012°16'1211.8
2016-Feb-07 12:33N 56°41' E 012°11'1111.3
2016-Feb-07 11:34N 56°52' E 012°06'1110.6
2016-Feb-07 10:34N 57°02' E 011°60'1010.3
2016-Feb-07 09:33N 57°12' E 011°54'9 9.5
2016-Feb-07 08:33N 57°20' E 011°45'1010.1
2016-Feb-07 07:33N 57°28' E 011°34'1010.1
2016-Feb-07 06:34N 57°37' E 011°24'1110.8
2016-Feb-07 05:34N 57°47' E 011°21'1010.5
2016-Feb-07 04:34N 57°58' E 011°17'10 9.7
2016-Feb-07 03:33N 58°07' E 011°15'9 9.0
2016-Feb-07 02:33N 58°16' E 011°15'8 7.8
2016-Feb-07 01:34N 58°21' E 011°26'0 0.0
2016-Feb-06 15:09N 58°21' E 011°26'0 0.0
2016-Feb-06 14:27N 58°21' E 011°26'0 0.0
2016-Feb-06 13:30N 58°21' E 011°26'0 0.0
2016-Feb-06 12:31N 58°21' E 011°26'1 1.4
2016-Feb-06 11:33N 58°21' E 011°24'1110.9
2016-Feb-06 10:33N 58°12' E 011°11'1 0.9
2016-Feb-06 09:33N 58°11' E 011°11'0 0.1
2016-Feb-06 08:30N 58°11' E 011°11'0 0.0
2016-Feb-06 07:33N 58°11' E 011°11'0 0.0
2016-Feb-06 06:33N 58°11' E 011°11'0 0.0
2016-Feb-06 05:33N 58°11' E 011°11'0 0.0
2016-Feb-06 04:33N 58°11' E 011°11'0 0.0
2016-Feb-06 03:33N 58°11' E 011°11'0 0.0
2016-Feb-06 02:27N 58°11' E 011°11'0 0.0
2016-Feb-06 01:33N 58°11' E 011°11'0 0.0
2016-Feb-06 00:30N 58°11' E 011°11'0 0.0
2016-Feb-05 23:33N 58°11' E 011°11'0 0.0
2016-Feb-05 22:33N 58°11' E 011°11'0 0.0
2016-Feb-05 21:33N 58°11' E 011°11'0 0.0
2016-Feb-05 20:33N 58°11' E 011°11'0 0.0
2016-Feb-05 19:27N 58°11' E 011°11'0 0.0
2016-Feb-05 18:33N 58°11' E 011°11'0 0.0
2016-Feb-05 17:33N 58°11' E 011°11'0 0.0
2016-Feb-05 16:33N 58°11' E 011°11'0 0.0
2016-Feb-05 15:33N 58°11' E 011°11'0 0.0
2016-Feb-05 14:33N 58°11' E 011°11'0 0.0
2016-Feb-05 13:33N 58°11' E 011°11'0 0.0
2016-Feb-05 12:33N 58°11' E 011°11'0 0.0
2016-Feb-05 11:33N 58°11' E 011°11'0 0.0
2016-Feb-05 10:33N 58°11' E 011°11'0 0.0
2016-Feb-05 09:33N 58°11' E 011°11'0 0.1
2016-Feb-05 08:33N 58°11' E 011°11'0 0.0
2016-Feb-05 07:33N 58°11' E 011°11'0 0.0
2016-Feb-05 06:33N 58°11' E 011°11'0 0.0
2016-Feb-05 05:33N 58°11' E 011°11'0 0.0
2016-Feb-05 04:33N 58°11' E 011°11'0 0.0
2016-Feb-05 03:33N 58°11' E 011°11'0 0.0
2016-Feb-05 02:33N 58°11' E 011°11'0 0.0
2016-Feb-05 01:33N 58°11' E 011°11'0 0.0
2016-Feb-05 00:33N 58°11' E 011°11'0 0.0
2016-Feb-04 23:33N 58°11' E 011°11'0 0.0
2016-Feb-04 22:33N 58°11' E 011°11'0 0.0
2016-Feb-04 21:33N 58°11' E 011°11'0 0.1
2016-Feb-04 20:33N 58°11' E 011°11'0 0.0
2016-Feb-04 19:30N 58°11' E 011°11'3 2.9
2016-Feb-04 18:33N 58°08' E 011°10'1312.6
2016-Feb-04 17:33N 57°56' E 011°16'1211.9
2016-Feb-04 16:33N 57°44' E 011°21'1111.4
2016-Feb-04 15:33N 57°33' E 011°26'1111.4
2016-Feb-04 14:33N 57°22' E 011°32'1111.4
2016-Feb-04 13:33N 57°11' E 011°37'1212.0
2016-Feb-04 12:33N 56°60' E 011°45'1211.6
2016-Feb-04 11:33N 56°49' E 011°52'1110.5
2016-Feb-04 10:33N 56°40' E 011°43'4412.8
2016-Feb-04 07:07N 56°09' E 010°46'1610.0
2016-Feb-04 05:34N 56°08' E 010°18'2 2.3
2016-Feb-04 04:31N 56°09' E 010°14'0 0.0
2016-Feb-04 03:25N 56°09' E 010°14'0 0.0
2016-Feb-04 02:31N 56°09' E 010°14'0 0.0
2016-Feb-04 01:23N 56°09' E 010°14'0 0.0
2016-Feb-04 00:31N 56°09' E 010°14'0 0.0
2016-Feb-03 23:25N 56°09' E 010°14'0 0.0
2016-Feb-03 22:25N 56°09' E 010°14'0 0.0
2016-Feb-03 21:31N 56°09' E 010°14'0 0.0
2016-Feb-03 20:26N 56°09' E 010°14'0 0.0
2016-Feb-03 19:31N 56°09' E 010°14'0 0.0
2016-Feb-03 18:19N 56°09' E 010°14'0 0.0
2016-Feb-03 17:31N 56°09' E 010°14'0 0.0
2016-Feb-03 16:32N 56°09' E 010°14'0 0.0
2016-Feb-03 15:28N 56°09' E 010°14'0 0.0
2016-Feb-03 14:06N 56°09' E 010°14'1 0.9
2016-Feb-03 13:32N 56°10' E 010°14'10 8.7
2016-Feb-03 12:24N 56°06' E 010°30'5110.0
2016-Feb-03 07:17N 56°40' E 011°39'810.6
2016-Feb-03 06:33N 56°45' E 011°50'1111.0
2016-Feb-03 05:33N 56°55' E 011°45'1211.7
2016-Feb-03 04:33N 57°06' E 011°38'1111.2
2016-Feb-03 03:33N 57°17' E 011°38'1211.6
2016-Feb-03 02:33N 57°29' E 011°38'1010.3
2016-Feb-03 01:33N 57°39' E 011°41'6 6.3
2016-Feb-03 00:33N 57°41' E 011°52'0 0.0
2016-Feb-02 23:31N 57°41' E 011°52'0 0.0
2016-Feb-02 22:34N 57°41' E 011°52'0 0.0
2016-Feb-02 21:34N 57°41' E 011°52'0 0.0
2016-Feb-02 20:34N 57°41' E 011°52'0 0.0
2016-Feb-02 19:34N 57°41' E 011°52'0 0.0
2016-Feb-02 18:31N 57°41' E 011°52'0 0.0
2016-Feb-02 17:34N 57°41' E 011°52'0 0.0
2016-Feb-02 16:34N 57°41' E 011°52'0 0.0
2016-Feb-02 15:30N 57°41' E 011°52'0 0.0
2016-Feb-02 14:31N 57°41' E 011°52'0 0.0
2016-Feb-02 13:34N 57°41' E 011°52'0 0.0
2016-Feb-02 12:31N 57°41' E 011°52'0 0.0
2016-Feb-02 11:34N 57°41' E 011°52'1 0.8
2016-Feb-02 10:33N 57°41' E 011°51'9 9.4
2016-Feb-02 09:33N 57°35' E 011°38'1212.4
2016-Feb-02 08:33N 57°22' E 011°38'74 2.0
2016-Jan-31 19:08N 56°09' E 011°48'711.7
2016-Jan-31 18:33N 56°11' E 011°59'1211.6
2016-Jan-31 17:33N 56°11' E 012°20'1110.7
2016-Jan-31 16:33N 56°05' E 012°36'9 9.2
2016-Jan-31 15:33N 55°57' E 012°43'1010.5
2016-Jan-31 14:34N 55°47' E 012°42'10 9.8
2016-Jan-31 13:33N 55°37' E 012°42'8 7.6
2016-Jan-31 12:34N 55°29' E 012°42'1111.0
2016-Jan-31 11:33N 55°18' E 012°42'1110.7
2016-Jan-31 10:34N 55°16' E 012°60'1010.0
2016-Jan-31 09:31N 55°15' E 013°18'9 9.0
2016-Jan-31 08:33N 55°15' E 013°33'8 7.6
2016-Jan-31 07:33N 55°14' E 013°47'7 6.6
2016-Jan-31 06:33N 55°14' E 013°58'7 6.6
2016-Jan-31 05:33N 55°14' E 014°10'7 7.0
2016-Jan-31 04:33N 55°17' E 014°21'9 8.5
2016-Jan-31 03:33N 55°24' E 014°30'9 9.0
2016-Jan-31 02:33N 55°29' E 014°43'9 9.3
2016-Jan-31 01:33N 55°33' E 014°58'10 9.5
2016-Jan-31 00:33N 55°34' E 015°15'10 9.8
2016-Jan-30 23:33N 55°34' E 015°32'  

Dump ship's entire track history